Terminal Aerodrome Forecast
Issued by NWS Cleveland, OH

Home | Current Version | Previous Version | Text Only | Print | Product List | Glossary Off
Versions: 1 2 3 4 5 6 7 8 9 10 11 12 13 14 15 16 17 18 19

000
FTUS41 KCLE 262300
TAFERI
TAF
KERI 262331Z 2700/2724 05010KT P6SM -SN OVC012
     FM270700 02010KT 2SM -SN OVC012
     FM272000 36008KT 6SM -SN OVC015=

USA.gov is the U.S. government's official web portal to all federal, state and local government web resources and services.